sensor_id;sensor_type;location;lat;lon;timestamp;temperature;humidity
3550;DHT22;45572;48.804;8.330;2023-07-22T00:00:45;16.80;85.80
3550;DHT22;45572;48.804;8.330;2023-07-22T00:03:13;16.80;86.20
3550;DHT22;45572;48.804;8.330;2023-07-22T00:05:41;16.90;86.10
3550;DHT22;45572;48.804;8.330;2023-07-22T00:08:10;16.80;86.20
3550;DHT22;45572;48.804;8.330;2023-07-22T00:10:40;16.80;85.80
3550;DHT22;45572;48.804;8.330;2023-07-22T00:13:10;16.70;86.60
3550;DHT22;45572;48.804;8.330;2023-07-22T00:15:37;16.70;86.60
3550;DHT22;45572;48.804;8.330;2023-07-22T00:18:05;16.60;86.80
3550;DHT22;45572;48.804;8.330;2023-07-22T00:20:33;16.60;86.60
3550;DHT22;45572;48.804;8.330;2023-07-22T00:23:01;16.50;86.90
3550;DHT22;45572;48.804;8.330;2023-07-22T00:25:29;16.50;87.30
3550;DHT22;45572;48.804;8.330;2023-07-22T00:27:57;16.50;87.30
3550;DHT22;45572;48.804;8.330;2023-07-22T00:30:26;16.50;87.50
3550;DHT22;45572;48.804;8.330;2023-07-22T00:32:54;16.50;87.60
3550;DHT22;45572;48.804;8.330;2023-07-22T00:35:22;16.50;87.50
3550;DHT22;45572;48.804;8.330;2023-07-22T00:37:50;16.40;87.80
3550;DHT22;45572;48.804;8.330;2023-07-22T00:40:18;16.30;87.80
3550;DHT22;45572;48.804;8.330;2023-07-22T00:42:46;16.30;87.90
3550;DHT22;45572;48.804;8.330;2023-07-22T00:45:14;16.30;88.10
3550;DHT22;45572;48.804;8.330;2023-07-22T00:47:44;16.20;88.30
3550;DHT22;45572;48.804;8.330;2023-07-22T00:50:12;16.10;88.40
3550;DHT22;45572;48.804;8.330;2023-07-22T00:52:40;15.90;88.80
3550;DHT22;45572;48.804;8.330;2023-07-22T00:55:08;15.80;89.30
3550;DHT22;45572;48.804;8.330;2023-07-22T00:57:37;15.70;89.60
3550;DHT22;45572;48.804;8.330;2023-07-22T01:00:06;15.60;89.80
3550;DHT22;45572;48.804;8.330;2023-07-22T01:02:38;15.50;90.20
3550;DHT22;45572;48.804;8.330;2023-07-22T01:05:08;15.50;90.20
3550;DHT22;45572;48.804;8.330;2023-07-22T01:07:37;15.50;90.50
3550;DHT22;45572;48.804;8.330;2023-07-22T01:10:06;15.50;90.50
3550;DHT22;45572;48.804;8.330;2023-07-22T01:12:34;15.30;90.70
3550;DHT22;45572;48.804;8.330;2023-07-22T01:15:03;15.20;91.10
3550;DHT22;45572;48.804;8.330;2023-07-22T01:17:35;15.20;91.30
3550;DHT22;45572;48.804;8.330;2023-07-22T01:20:04;15.20;91.40
3550;DHT22;45572;48.804;8.330;2023-07-22T01:22:34;15.20;91.30
3550;DHT22;45572;48.804;8.330;2023-07-22T01:25:04;15.10;91.30
3550;DHT22;45572;48.804;8.330;2023-07-22T01:27:33;15.10;91.30
3550;DHT22;45572;48.804;8.330;2023-07-22T01:30:01;15.10;91.30
3550;DHT22;45572;48.804;8.330;2023-07-22T01:32:30;15.00;91.50
3550;DHT22;45572;48.804;8.330;2023-07-22T01:34:58;14.90;91.70
3550;DHT22;45572;48.804;8.330;2023-07-22T01:37:26;14.90;91.80
3550;DHT22;45572;48.804;8.330;2023-07-22T01:39:53;14.80;91.90
3550;DHT22;45572;48.804;8.330;2023-07-22T01:42:24;14.80;92.20
3550;DHT22;45572;48.804;8.330;2023-07-22T01:44:53;14.90;91.90
3550;DHT22;45572;48.804;8.330;2023-07-22T01:47:21;14.80;92.10
3550;DHT22;45572;48.804;8.330;2023-07-22T01:49:48;14.80;92.00
3550;DHT22;45572;48.804;8.330;2023-07-22T01:52:16;14.80;92.00
3550;DHT22;45572;48.804;8.330;2023-07-22T01:54:44;14.80;91.90
3550;DHT22;45572;48.804;8.330;2023-07-22T01:57:12;14.70;91.90
3550;DHT22;45572;48.804;8.330;2023-07-22T01:59:41;14.60;92.10
3550;DHT22;45572;48.804;8.330;2023-07-22T02:02:08;14.50;92.50
3550;DHT22;45572;48.804;8.330;2023-07-22T02:04:36;14.50;92.60
3550;DHT22;45572;48.804;8.330;2023-07-22T02:07:06;14.60;92.70
3550;DHT22;45572;48.804;8.330;2023-07-22T02:09:33;14.60;92.60
3550;DHT22;45572;48.804;8.330;2023-07-22T02:12:02;14.70;92.50
3550;DHT22;45572;48.804;8.330;2023-07-22T02:14:30;14.70;92.50
3550;DHT22;45572;48.804;8.330;2023-07-22T02:16:59;14.70;92.20
3550;DHT22;45572;48.804;8.330;2023-07-22T02:19:28;14.80;92.20
3550;DHT22;45572;48.804;8.330;2023-07-22T02:21:56;14.70;92.10
3550;DHT22;45572;48.804;8.330;2023-07-22T02:24:24;14.70;92.10
3550;DHT22;45572;48.804;8.330;2023-07-22T02:26:52;14.70;92.30
3550;DHT22;45572;48.804;8.330;2023-07-22T02:29:20;14.80;92.20
3550;DHT22;45572;48.804;8.330;2023-07-22T02:31:47;14.80;91.70
3550;DHT22;45572;48.804;8.330;2023-07-22T02:34:16;14.70;91.80
3550;DHT22;45572;48.804;8.330;2023-07-22T02:36:44;14.70;91.70
3550;DHT22;45572;48.804;8.330;2023-07-22T02:39:12;14.70;91.80
3550;DHT22;45572;48.804;8.330;2023-07-22T02:41:40;14.60;92.10
3550;DHT22;45572;48.804;8.330;2023-07-22T02:44:07;14.40;92.30
3550;DHT22;45572;48.804;8.330;2023-07-22T02:46:35;14.40;92.60
3550;DHT22;45572;48.804;8.330;2023-07-22T02:49:03;14.40;92.70
3550;DHT22;45572;48.804;8.330;2023-07-22T02:51:33;14.40;92.80
3550;DHT22;45572;48.804;8.330;2023-07-22T02:54:00;14.50;92.80
3550;DHT22;45572;48.804;8.330;2023-07-22T02:56:30;14.40;92.70
3550;DHT22;45572;48.804;8.330;2023-07-22T02:58:58;14.50;92.50
3550;DHT22;45572;48.804;8.330;2023-07-22T03:01:25;14.50;92.40
3550;DHT22;45572;48.804;8.330;2023-07-22T03:03:53;14.50;92.10
3550;DHT22;45572;48.804;8.330;2023-07-22T03:06:21;14.40;92.00
3550;DHT22;45572;48.804;8.330;2023-07-22T03:08:50;14.30;92.20
3550;DHT22;45572;48.804;8.330;2023-07-22T03:11:20;14.30;92.20
3550;DHT22;45572;48.804;8.330;2023-07-22T03:13:51;14.20;92.30
3550;DHT22;45572;48.804;8.330;2023-07-22T03:16:20;14.20;92.40
3550;DHT22;45572;48.804;8.330;2023-07-22T03:18:48;14.30;92.20
3550;DHT22;45572;48.804;8.330;2023-07-22T03:21:16;14.30;91.90
3550;DHT22;45572;48.804;8.330;2023-07-22T03:23:43;14.40;91.80
3550;DHT22;45572;48.804;8.330;2023-07-22T03:26:12;14.50;91.30
3550;DHT22;45572;48.804;8.330;2023-07-22T03:28:40;14.60;91.30
3550;DHT22;45572;48.804;8.330;2023-07-22T03:31:08;14.60;90.80
3550;DHT22;45572;48.804;8.330;2023-07-22T03:33:36;14.70;90.50
3550;DHT22;45572;48.804;8.330;2023-07-22T03:36:05;14.70;90.40
3550;DHT22;45572;48.804;8.330;2023-07-22T03:38:33;14.80;90.10
3550;DHT22;45572;48.804;8.330;2023-07-22T03:41:01;14.80;89.80
3550;DHT22;45572;48.804;8.330;2023-07-22T03:43:31;14.80;89.80
3550;DHT22;45572;48.804;8.330;2023-07-22T03:45:59;14.80;89.80
3550;DHT22;45572;48.804;8.330;2023-07-22T03:48:26;14.80;89.60
3550;DHT22;45572;48.804;8.330;2023-07-22T03:50:54;14.80;89.80
3550;DHT22;45572;48.804;8.330;2023-07-22T03:53:38;14.90;89.70
3550;DHT22;45572;48.804;8.330;2023-07-22T03:56:05;14.80;90.00
3550;DHT22;45572;48.804;8.330;2023-07-22T03:58:35;14.70;90.30
3550;DHT22;45572;48.804;8.330;2023-07-22T04:01:02;14.70;90.60
3550;DHT22;45572;48.804;8.330;2023-07-22T04:03:30;14.60;90.80
3550;DHT22;45572;48.804;8.330;2023-07-22T04:05:58;14.60;91.00
3550;DHT22;45572;48.804;8.330;2023-07-22T04:08:26;14.50;91.00
3550;DHT22;45572;48.804;8.330;2023-07-22T04:10:55;14.40;91.20
3550;DHT22;45572;48.804;8.330;2023-07-22T04:13:24;14.40;91.80
3550;DHT22;45572;48.804;8.330;2023-07-22T04:15:54;14.40;91.70
3550;DHT22;45572;48.804;8.330;2023-07-22T04:18:22;14.40;91.60
3550;DHT22;45572;48.804;8.330;2023-07-22T04:20:55;14.30;91.70
3550;DHT22;45572;48.804;8.330;2023-07-22T04:23:23;14.30;92.10
3550;DHT22;45572;48.804;8.330;2023-07-22T04:25:51;14.20;92.20
3550;DHT22;45572;48.804;8.330;2023-07-22T04:28:19;14.20;92.40
3550;DHT22;45572;48.804;8.330;2023-07-22T04:30:56;14.30;92.50
3550;DHT22;45572;48.804;8.330;2023-07-22T04:33:25;14.40;92.60
3550;DHT22;45572;48.804;8.330;2023-07-22T04:35:53;14.40;92.40
3550;DHT22;45572;48.804;8.330;2023-07-22T04:38:22;14.60;92.20
3550;DHT22;45572;48.804;8.330;2023-07-22T04:40:50;14.60;91.90
3550;DHT22;45572;48.804;8.330;2023-07-22T04:43:18;14.60;91.70
3550;DHT22;45572;48.804;8.330;2023-07-22T04:45:48;14.60;91.90
3550;DHT22;45572;48.804;8.330;2023-07-22T04:48:20;14.70;91.60
3550;DHT22;45572;48.804;8.330;2023-07-22T04:50:47;14.70;91.70
3550;DHT22;45572;48.804;8.330;2023-07-22T04:53:16;14.60;91.80
3550;DHT22;45572;48.804;8.330;2023-07-22T04:55:44;14.70;92.00
3550;DHT22;45572;48.804;8.330;2023-07-22T04:58:12;14.80;92.00
3550;DHT22;45572;48.804;8.330;2023-07-22T05:00:40;14.90;91.80
3550;DHT22;45572;48.804;8.330;2023-07-22T05:03:09;14.80;91.60
3550;DHT22;45572;48.804;8.330;2023-07-22T05:05:38;14.90;91.30
3550;DHT22;45572;48.804;8.330;2023-07-22T05:08:05;14.80;91.30
3550;DHT22;45572;48.804;8.330;2023-07-22T05:10:34;14.80;91.70
3550;DHT22;45572;48.804;8.330;2023-07-22T05:13:02;14.80;92.10
3550;DHT22;45572;48.804;8.330;2023-07-22T05:15:30;14.90;92.30
3550;DHT22;45572;48.804;8.330;2023-07-22T05:17:58;15.00;92.20
3550;DHT22;45572;48.804;8.330;2023-07-22T05:20:25;15.10;92.00
3550;DHT22;45572;48.804;8.330;2023-07-22T05:22:55;15.30;91.60
3550;DHT22;45572;48.804;8.330;2023-07-22T05:25:23;15.40;91.20
3550;DHT22;45572;48.804;8.330;2023-07-22T05:27:51;15.60;91.10
3550;DHT22;45572;48.804;8.330;2023-07-22T05:30:18;15.80;91.10
3550;DHT22;45572;48.804;8.330;2023-07-22T05:33:01;15.90;90.30
3550;DHT22;45572;48.804;8.330;2023-07-22T05:35:29;16.10;90.30
3550;DHT22;45572;48.804;8.330;2023-07-22T05:37:58;16.30;90.10
3550;DHT22;45572;48.804;8.330;2023-07-22T05:40:27;16.50;89.50
3550;DHT22;45572;48.804;8.330;2023-07-22T05:42:55;16.80;89.50
3550;DHT22;45572;48.804;8.330;2023-07-22T05:45:22;17.10;89.00
3550;DHT22;45572;48.804;8.330;2023-07-22T05:47:50;17.40;87.60
3550;DHT22;45572;48.804;8.330;2023-07-22T05:50:19;17.60;86.90
3550;DHT22;45572;48.804;8.330;2023-07-22T05:52:47;17.90;86.30
3550;DHT22;45572;48.804;8.330;2023-07-22T05:55:16;18.10;85.70
3550;DHT22;45572;48.804;8.330;2023-07-22T05:57:44;18.40;84.70
3550;DHT22;45572;48.804;8.330;2023-07-22T06:00:12;18.70;83.50
3550;DHT22;45572;48.804;8.330;2023-07-22T06:02:41;18.90;81.30
3550;DHT22;45572;48.804;8.330;2023-07-22T06:05:08;19.20;80.50
3550;DHT22;45572;48.804;8.330;2023-07-22T06:07:37;19.50;79.30
3550;DHT22;45572;48.804;8.330;2023-07-22T06:10:06;20.00;78.20
3550;DHT22;45572;48.804;8.330;2023-07-22T06:12:36;20.70;77.20
3550;DHT22;45572;48.804;8.330;2023-07-22T06:15:05;21.30;75.40
3550;DHT22;45572;48.804;8.330;2023-07-22T06:17:33;21.40;73.60
3550;DHT22;45572;48.804;8.330;2023-07-22T06:20:01;21.40;73.70
3550;DHT22;45572;48.804;8.330;2023-07-22T06:22:29;21.50;74.60
3550;DHT22;45572;48.804;8.330;2023-07-22T06:24:57;21.50;74.20
3550;DHT22;45572;48.804;8.330;2023-07-22T06:27:25;21.40;73.80
3550;DHT22;45572;48.804;8.330;2023-07-22T06:29:54;20.80;75.50
3550;DHT22;45572;48.804;8.330;2023-07-22T06:32:23;20.80;76.40
3550;DHT22;45572;48.804;8.330;2023-07-22T06:34:50;20.80;76.40
3550;DHT22;45572;48.804;8.330;2023-07-22T06:37:18;20.90;76.90
3550;DHT22;45572;48.804;8.330;2023-07-22T06:39:46;20.60;77.90
3550;DHT22;45572;48.804;8.330;2023-07-22T06:42:18;20.70;78.00
3550;DHT22;45572;48.804;8.330;2023-07-22T06:44:45;21.10;76.70
3550;DHT22;45572;48.804;8.330;2023-07-22T06:47:16;21.60;76.40
3550;DHT22;45572;48.804;8.330;2023-07-22T06:49:45;22.00;73.70
3550;DHT22;45572;48.804;8.330;2023-07-22T06:52:13;22.20;71.50
3550;DHT22;45572;48.804;8.330;2023-07-22T06:54:41;22.50;70.10
3550;DHT22;45572;48.804;8.330;2023-07-22T06:57:09;22.80;69.50
3550;DHT22;45572;48.804;8.330;2023-07-22T06:59:37;22.70;69.40
3550;DHT22;45572;48.804;8.330;2023-07-22T07:02:05;22.60;69.60
3550;DHT22;45572;48.804;8.330;2023-07-22T07:04:34;23.00;69.00
3550;DHT22;45572;48.804;8.330;2023-07-22T07:07:02;23.30;69.00
3550;DHT22;45572;48.804;8.330;2023-07-22T07:09:30;23.80;66.90
3550;DHT22;45572;48.804;8.330;2023-07-22T07:11:58;24.70;65.70
3550;DHT22;45572;48.804;8.330;2023-07-22T07:14:25;25.50;64.00
3550;DHT22;45572;48.804;8.330;2023-07-22T07:16:53;26.10;62.60
3550;DHT22;45572;48.804;8.330;2023-07-22T07:19:21;26.40;61.10
3550;DHT22;45572;48.804;8.330;2023-07-22T07:21:51;26.10;61.10
3550;DHT22;45572;48.804;8.330;2023-07-22T07:24:19;25.50;61.20
3550;DHT22;45572;48.804;8.330;2023-07-22T07:26:46;26.00;61.50
3550;DHT22;45572;48.804;8.330;2023-07-22T07:29:14;26.40;60.40
3550;DHT22;45572;48.804;8.330;2023-07-22T07:32:02;26.50;58.70
3550;DHT22;45572;48.804;8.330;2023-07-22T07:34:30;26.30;61.90
3550;DHT22;45572;48.804;8.330;2023-07-22T07:36:59;26.40;60.30
3550;DHT22;45572;48.804;8.330;2023-07-22T07:39:27;27.30;59.40
3550;DHT22;45572;48.804;8.330;2023-07-22T07:41:55;27.70;58.60
3550;DHT22;45572;48.804;8.330;2023-07-22T07:44:23;29.30;55.80
3550;DHT22;45572;48.804;8.330;2023-07-22T07:46:51;30.30;52.00
3550;DHT22;45572;48.804;8.330;2023-07-22T07:49:18;31.00;51.80
3550;DHT22;45572;48.804;8.330;2023-07-22T07:51:46;31.20;50.50
3550;DHT22;45572;48.804;8.330;2023-07-22T07:54:16;30.90;51.30
3550;DHT22;45572;48.804;8.330;2023-07-22T07:56:44;30.90;51.70
3550;DHT22;45572;48.804;8.330;2023-07-22T07:59:11;30.50;50.50
3550;DHT22;45572;48.804;8.330;2023-07-22T08:01:40;30.20;52.40
3550;DHT22;45572;48.804;8.330;2023-07-22T08:04:08;29.50;51.60
3550;DHT22;45572;48.804;8.330;2023-07-22T08:06:37;28.80;53.50
3550;DHT22;45572;48.804;8.330;2023-07-22T08:09:05;28.50;55.00
3550;DHT22;45572;48.804;8.330;2023-07-22T08:11:36;28.60;56.40
3550;DHT22;45572;48.804;8.330;2023-07-22T08:14:04;29.70;56.70
3550;DHT22;45572;48.804;8.330;2023-07-22T08:16:40;31.10;50.80
3550;DHT22;45572;48.804;8.330;2023-07-22T08:19:08;32.20;47.90
3550;DHT22;45572;48.804;8.330;2023-07-22T08:21:36;33.20;46.90
3550;DHT22;45572;48.804;8.330;2023-07-22T08:24:05;33.40;45.30
3550;DHT22;45572;48.804;8.330;2023-07-22T08:26:36;33.10;47.60
3550;DHT22;45572;48.804;8.330;2023-07-22T08:29:04;33.70;47.80
3550;DHT22;45572;48.804;8.330;2023-07-22T08:31:32;34.40;44.20
3550;DHT22;45572;48.804;8.330;2023-07-22T08:34:00;35.10;44.70
3550;DHT22;45572;48.804;8.330;2023-07-22T08:36:28;36.00;42.80
3550;DHT22;45572;48.804;8.330;2023-07-22T08:38:56;37.20;42.10
3550;DHT22;45572;48.804;8.330;2023-07-22T08:41:25;36.90;39.40
3550;DHT22;45572;48.804;8.330;2023-07-22T08:43:54;34.80;41.20
3550;DHT22;45572;48.804;8.330;2023-07-22T08:46:28;32.00;44.20
3550;DHT22;45572;48.804;8.330;2023-07-22T08:48:57;31.50;46.60
3550;DHT22;45572;48.804;8.330;2023-07-22T08:51:29;32.40;44.60
3550;DHT22;45572;48.804;8.330;2023-07-22T08:54:01;32.40;44.80
3550;DHT22;45572;48.804;8.330;2023-07-22T08:56:38;32.70;44.50
3550;DHT22;45572;48.804;8.330;2023-07-22T08:59:08;31.50;46.60
3550;DHT22;45572;48.804;8.330;2023-07-22T09:01:39;31.70;46.70
3550;DHT22;45572;48.804;8.330;2023-07-22T09:04:07;31.30;46.90
3550;DHT22;45572;48.804;8.330;2023-07-22T09:06:36;31.00;48.20
3550;DHT22;45572;48.804;8.330;2023-07-22T09:09:04;30.80;49.70
3550;DHT22;45572;48.804;8.330;2023-07-22T09:11:35;31.10;49.20
3550;DHT22;45572;48.804;8.330;2023-07-22T09:14:03;31.90;50.60
3550;DHT22;45572;48.804;8.330;2023-07-22T09:16:33;32.90;47.60
3550;DHT22;45572;48.804;8.330;2023-07-22T09:19:04;32.50;47.70
3550;DHT22;45572;48.804;8.330;2023-07-22T09:21:32;31.90;48.00
3550;DHT22;45572;48.804;8.330;2023-07-22T09:24:20;29.80;50.80
3550;DHT22;45572;48.804;8.330;2023-07-22T09:26:50;29.70;52.50
3550;DHT22;45572;48.804;8.330;2023-07-22T09:29:18;30.10;52.00
3550;DHT22;45572;48.804;8.330;2023-07-22T09:31:52;29.50;53.20
3550;DHT22;45572;48.804;8.330;2023-07-22T09:34:20;29.80;51.60
3550;DHT22;45572;48.804;8.330;2023-07-22T09:36:51;30.90;49.80
3550;DHT22;45572;48.804;8.330;2023-07-22T09:39:19;33.00;49.50
3550;DHT22;45572;48.804;8.330;2023-07-22T09:41:47;33.60;45.10
3550;DHT22;45572;48.804;8.330;2023-07-22T09:44:15;33.60;46.60
3550;DHT22;45572;48.804;8.330;2023-07-22T09:46:46;34.20;44.80
3550;DHT22;45572;48.804;8.330;2023-07-22T09:49:17;34.10;43.80
3550;DHT22;45572;48.804;8.330;2023-07-22T09:51:45;35.40;44.70
3550;DHT22;45572;48.804;8.330;2023-07-22T09:54:27;35.50;42.90
3550;DHT22;45572;48.804;8.330;2023-07-22T09:56:56;34.90;42.10
3550;DHT22;45572;48.804;8.330;2023-07-22T09:59:24;35.10;42.90
3550;DHT22;45572;48.804;8.330;2023-07-22T10:01:54;35.20;42.60
3550;DHT22;45572;48.804;8.330;2023-07-22T10:04:28;35.30;41.60
3550;DHT22;45572;48.804;8.330;2023-07-22T10:06:59;34.80;43.90
3550;DHT22;45572;48.804;8.330;2023-07-22T10:09:28;34.60;43.60
3550;DHT22;45572;48.804;8.330;2023-07-22T10:11:57;34.00;44.70
3550;DHT22;45572;48.804;8.330;2023-07-22T10:14:26;33.50;45.20
3550;DHT22;45572;48.804;8.330;2023-07-22T10:16:58;33.00;45.80
3550;DHT22;45572;48.804;8.330;2023-07-22T10:19:28;32.70;45.90
3550;DHT22;45572;48.804;8.330;2023-07-22T10:21:57;33.20;45.10
3550;DHT22;45572;48.804;8.330;2023-07-22T10:24:25;33.90;43.80
3550;DHT22;45572;48.804;8.330;2023-07-22T10:26:53;33.40;44.20
3550;DHT22;45572;48.804;8.330;2023-07-22T10:29:21;33.50;43.30
3550;DHT22;45572;48.804;8.330;2023-07-22T10:31:50;32.30;41.90
3550;DHT22;45572;48.804;8.330;2023-07-22T10:34:21;30.70;44.90
3550;DHT22;45572;48.804;8.330;2023-07-22T10:36:50;29.20;48.60
3550;DHT22;45572;48.804;8.330;2023-07-22T10:39:26;28.90;50.60
3550;DHT22;45572;48.804;8.330;2023-07-22T10:42:00;28.30;51.30
3550;DHT22;45572;48.804;8.330;2023-07-22T10:44:31;27.80;52.90
3550;DHT22;45572;48.804;8.330;2023-07-22T10:46:59;27.60;53.00
3550;DHT22;45572;48.804;8.330;2023-07-22T10:49:42;27.80;52.40
3550;DHT22;45572;48.804;8.330;2023-07-22T10:52:13;28.10;55.00
3550;DHT22;45572;48.804;8.330;2023-07-22T10:54:41;28.80;51.80
3550;DHT22;45572;48.804;8.330;2023-07-22T10:57:24;29.00;50.80
3550;DHT22;45572;48.804;8.330;2023-07-22T10:59:55;28.80;49.70
3550;DHT22;45572;48.804;8.330;2023-07-22T11:02:24;27.60;51.80
3550;DHT22;45572;48.804;8.330;2023-07-22T11:04:56;27.60;53.60
3550;DHT22;45572;48.804;8.330;2023-07-22T11:07:41;27.80;52.30
3550;DHT22;45572;48.804;8.330;2023-07-22T11:10:13;28.10;51.60
3550;DHT22;45572;48.804;8.330;2023-07-22T11:12:45;28.90;52.20
3550;DHT22;45572;48.804;8.330;2023-07-22T11:15:15;30.10;50.70
3550;DHT22;45572;48.804;8.330;2023-07-22T11:17:43;30.70;50.70
3550;DHT22;45572;48.804;8.330;2023-07-22T11:20:11;32.20;49.60
3550;DHT22;45572;48.804;8.330;2023-07-22T11:22:40;32.70;46.50
3550;DHT22;45572;48.804;8.330;2023-07-22T11:25:16;33.50;45.80
3550;DHT22;45572;48.804;8.330;2023-07-22T11:27:45;34.90;45.60
3550;DHT22;45572;48.804;8.330;2023-07-22T11:30:13;35.10;44.00
3550;DHT22;45572;48.804;8.330;2023-07-22T11:32:42;34.70;43.00
3550;DHT22;45572;48.804;8.330;2023-07-22T11:35:10;34.60;45.10
3550;DHT22;45572;48.804;8.330;2023-07-22T11:37:39;35.70;44.40
3550;DHT22;45572;48.804;8.330;2023-07-22T11:40:11;36.00;42.50
3550;DHT22;45572;48.804;8.330;2023-07-22T11:42:39;35.80;42.90
3550;DHT22;45572;48.804;8.330;2023-07-22T11:45:07;35.80;41.30
3550;DHT22;45572;48.804;8.330;2023-07-22T11:47:35;35.30;42.70
3550;DHT22;45572;48.804;8.330;2023-07-22T11:50:04;34.90;42.40
3550;DHT22;45572;48.804;8.330;2023-07-22T11:52:33;33.40;44.70
3550;DHT22;45572;48.804;8.330;2023-07-22T11:55:03;33.60;46.00
3550;DHT22;45572;48.804;8.330;2023-07-22T11:57:40;33.40;43.10
3550;DHT22;45572;48.804;8.330;2023-07-22T12:00:10;34.10;44.60
3550;DHT22;45572;48.804;8.330;2023-07-22T12:02:41;34.60;43.50
3550;DHT22;45572;48.804;8.330;2023-07-22T12:05:09;35.70;42.80
3550;DHT22;45572;48.804;8.330;2023-07-22T12:07:38;36.00;41.20
3550;DHT22;45572;48.804;8.330;2023-07-22T12:10:08;37.00;38.00
3550;DHT22;45572;48.804;8.330;2023-07-22T12:12:38;37.80;39.30
3550;DHT22;45572;48.804;8.330;2023-07-22T12:15:09;38.20;39.00
3550;DHT22;45572;48.804;8.330;2023-07-22T12:17:44;38.60;36.90
3550;DHT22;45572;48.804;8.330;2023-07-22T12:20:13;38.40;38.40
3550;DHT22;45572;48.804;8.330;2023-07-22T12:22:44;37.50;36.10
3550;DHT22;45572;48.804;8.330;2023-07-22T12:25:13;36.30;38.10
3550;DHT22;45572;48.804;8.330;2023-07-22T12:27:41;36.10;39.40
3550;DHT22;45572;48.804;8.330;2023-07-22T12:30:09;34.20;40.00
3550;DHT22;45572;48.804;8.330;2023-07-22T12:32:37;33.60;40.80
3550;DHT22;45572;48.804;8.330;2023-07-22T12:35:06;33.20;42.40
3550;DHT22;45572;48.804;8.330;2023-07-22T12:37:35;32.40;42.60
3550;DHT22;45572;48.804;8.330;2023-07-22T12:40:03;32.80;42.50
3550;DHT22;45572;48.804;8.330;2023-07-22T12:42:33;32.80;42.10
3550;DHT22;45572;48.804;8.330;2023-07-22T12:45:02;33.20;43.70
3550;DHT22;45572;48.804;8.330;2023-07-22T12:47:30;33.70;41.20
3550;DHT22;45572;48.804;8.330;2023-07-22T12:49:57;33.70;41.80
3550;DHT22;45572;48.804;8.330;2023-07-22T12:52:25;33.40;41.20
3550;DHT22;45572;48.804;8.330;2023-07-22T12:54:53;33.20;41.50
3550;DHT22;45572;48.804;8.330;2023-07-22T12:57:22;32.30;42.40
3550;DHT22;45572;48.804;8.330;2023-07-22T12:59:51;31.90;42.30
3550;DHT22;45572;48.804;8.330;2023-07-22T13:02:19;31.10;43.70
3550;DHT22;45572;48.804;8.330;2023-07-22T13:04:47;30.50;44.10
3550;DHT22;45572;48.804;8.330;2023-07-22T13:07:15;29.90;45.30
3550;DHT22;45572;48.804;8.330;2023-07-22T13:09:45;29.70;45.80
3550;DHT22;45572;48.804;8.330;2023-07-22T13:12:16;29.80;46.60
3550;DHT22;45572;48.804;8.330;2023-07-22T13:14:45;29.60;45.60
3550;DHT22;45572;48.804;8.330;2023-07-22T13:17:14;29.20;46.30
3550;DHT22;45572;48.804;8.330;2023-07-22T13:19:42;28.90;46.80
3550;DHT22;45572;48.804;8.330;2023-07-22T13:22:10;29.00;47.00
3550;DHT22;45572;48.804;8.330;2023-07-22T13:24:37;28.90;48.10
3550;DHT22;45572;48.804;8.330;2023-07-22T13:27:06;28.80;48.10
3550;DHT22;45572;48.804;8.330;2023-07-22T13:29:34;28.80;47.70
3550;DHT22;45572;48.804;8.330;2023-07-22T13:32:02;28.80;48.70
3550;DHT22;45572;48.804;8.330;2023-07-22T13:34:32;28.80;47.20
3550;DHT22;45572;48.804;8.330;2023-07-22T13:37:00;28.60;48.50
3550;DHT22;45572;48.804;8.330;2023-07-22T13:39:29;28.80;48.80
3550;DHT22;45572;48.804;8.330;2023-07-22T13:41:57;28.70;47.10
3550;DHT22;45572;48.804;8.330;2023-07-22T13:44:25;28.50;47.80
3550;DHT22;45572;48.804;8.330;2023-07-22T13:46:52;28.40;48.60
3550;DHT22;45572;48.804;8.330;2023-07-22T13:49:20;28.10;47.50
3550;DHT22;45572;48.804;8.330;2023-07-22T13:51:50;28.20;49.30
3550;DHT22;45572;48.804;8.330;2023-07-22T13:54:18;28.50;48.10
3550;DHT22;45572;48.804;8.330;2023-07-22T13:56:46;28.40;46.40
3550;DHT22;45572;48.804;8.330;2023-07-22T13:59:14;28.10;47.90
3550;DHT22;45572;48.804;8.330;2023-07-22T14:01:42;28.10;48.00
3550;DHT22;45572;48.804;8.330;2023-07-22T14:04:10;28.00;47.50
3550;DHT22;45572;48.804;8.330;2023-07-22T14:06:38;27.90;48.60
3550;DHT22;45572;48.804;8.330;2023-07-22T14:09:07;28.00;48.10
3550;DHT22;45572;48.804;8.330;2023-07-22T14:11:36;27.90;48.90
3550;DHT22;45572;48.804;8.330;2023-07-22T14:14:06;27.90;48.40
3550;DHT22;45572;48.804;8.330;2023-07-22T14:16:33;28.00;47.20
3550;DHT22;45572;48.804;8.330;2023-07-22T14:19:01;28.10;47.30
3550;DHT22;45572;48.804;8.330;2023-07-22T14:21:29;28.10;46.70
3550;DHT22;45572;48.804;8.330;2023-07-22T14:23:57;28.10;47.90
3550;DHT22;45572;48.804;8.330;2023-07-22T14:26:26;28.50;47.10
3550;DHT22;45572;48.804;8.330;2023-07-22T14:28:54;28.70;47.40
3550;DHT22;45572;48.804;8.330;2023-07-22T14:31:22;28.80;45.50
3550;DHT22;45572;48.804;8.330;2023-07-22T14:33:50;28.60;46.50
3550;DHT22;45572;48.804;8.330;2023-07-22T14:36:18;28.50;45.60
3550;DHT22;45572;48.804;8.330;2023-07-22T14:38:46;28.40;46.50
3550;DHT22;45572;48.804;8.330;2023-07-22T14:41:13;28.10;46.60
3550;DHT22;45572;48.804;8.330;2023-07-22T14:43:43;28.10;46.80
3550;DHT22;45572;48.804;8.330;2023-07-22T14:46:11;28.10;48.00
3550;DHT22;45572;48.804;8.330;2023-07-22T14:48:39;28.20;46.70
3550;DHT22;45572;48.804;8.330;2023-07-22T14:51:09;28.40;47.90
3550;DHT22;45572;48.804;8.330;2023-07-22T14:53:36;28.40;47.00
3550;DHT22;45572;48.804;8.330;2023-07-22T14:56:04;28.50;48.10
3550;DHT22;45572;48.804;8.330;2023-07-22T14:58:33;28.70;46.20
3550;DHT22;45572;48.804;8.330;2023-07-22T15:01:03;28.80;48.50
3550;DHT22;45572;48.804;8.330;2023-07-22T15:03:32;28.90;47.70
3550;DHT22;45572;48.804;8.330;2023-07-22T15:06:00;28.70;46.30
3550;DHT22;45572;48.804;8.330;2023-07-22T15:08:28;28.40;46.10
3550;DHT22;45572;48.804;8.330;2023-07-22T15:10:55;28.40;45.30
3550;DHT22;45572;48.804;8.330;2023-07-22T15:13:23;28.10;46.40
3550;DHT22;45572;48.804;8.330;2023-07-22T15:15:53;27.90;46.60
3550;DHT22;45572;48.804;8.330;2023-07-22T15:18:22;27.80;46.70
3550;DHT22;45572;48.804;8.330;2023-07-22T15:20:51;28.00;46.70
3550;DHT22;45572;48.804;8.330;2023-07-22T15:23:19;27.80;46.70
3550;DHT22;45572;48.804;8.330;2023-07-22T15:25:50;28.00;46.90
3550;DHT22;45572;48.804;8.330;2023-07-22T15:28:18;28.00;48.30
3550;DHT22;45572;48.804;8.330;2023-07-22T15:30:46;27.90;46.90
3550;DHT22;45572;48.804;8.330;2023-07-22T15:33:14;28.00;47.90
3550;DHT22;45572;48.804;8.330;2023-07-22T15:35:43;28.10;48.50
3550;DHT22;45572;48.804;8.330;2023-07-22T15:38:11;28.30;47.80
3550;DHT22;45572;48.804;8.330;2023-07-22T15:40:39;28.30;48.10
3550;DHT22;45572;48.804;8.330;2023-07-22T15:43:07;28.40;48.30
3550;DHT22;45572;48.804;8.330;2023-07-22T15:45:34;28.50;45.80
3550;DHT22;45572;48.804;8.330;2023-07-22T15:48:02;28.50;47.70
3550;DHT22;45572;48.804;8.330;2023-07-22T15:50:31;28.70;46.80
3550;DHT22;45572;48.804;8.330;2023-07-22T15:53:04;28.70;45.50
3550;DHT22;45572;48.804;8.330;2023-07-22T15:55:32;28.60;45.30